PIA451 OPIS-OPSD
Flight info
| Callsign | PIA451 |
|---|---|
| Flight time | 0h 42m |
| Altitude | 27500 |
| Route | BOBAM DCT KAGLO J186 KAPMI J154 BUNGI J186 DELDA DCT BIREB |
| Aircraft | A320/M-SDE3FGHIRWY/LB1 |
Departure
| Time | 2026-05-07 10:37 |
|---|---|
| Airport | Islamabad International Airport (OPIS) |
Arrival
| Time | 2026-05-07 11:19 |
|---|---|
| Airport | Skardu International Airport (OPSD) |
| Time | Latitude | Longitude | Altitude | Speed | Heading |
|---|---|---|---|---|---|
| 2026-05-07 07:27 | 33.55259 | 72.82899 | 1770 ft | 0 kts | 326° |
| 2026-05-07 10:27 | 33.55250 | 72.82907 | 1774 ft | 4 kts | 326° |
| 2026-05-07 10:28 | 33.55227 | 72.82925 | 1770 ft | 4 kts | 326° |
| 2026-05-07 10:28 | 33.55208 | 72.82940 | 1770 ft | 3 kts | 326° |
| 2026-05-07 10:28 | 33.55190 | 72.82961 | 1769 ft | 4 kts | 293° |
| 2026-05-07 10:28 | 33.55187 | 72.82990 | 1769 ft | 4 kts | 250° |
| 2026-05-07 10:29 | 33.55198 | 72.83014 | 1773 ft | 4 kts | 210° |
| 2026-05-07 10:29 | 33.55201 | 72.83015 | 1773 ft | 0 kts | 236° |
| 2026-05-07 10:31 | 33.55194 | 72.83004 | 1770 ft | 6 kts | 236° |
| 2026-05-07 10:32 | 33.55152 | 72.82917 | 1772 ft | 18 kts | 253° |
| 2026-05-07 10:32 | 33.55161 | 72.82810 | 1770 ft | 22 kts | 280° |
| 2026-05-07 10:32 | 33.55189 | 72.82629 | 1768 ft | 22 kts | 279° |
| 2026-05-07 10:32 | 33.55225 | 72.82386 | 1770 ft | 23 kts | 279° |
| 2026-05-07 10:33 | 33.55245 | 72.82260 | 1771 ft | 23 kts | 281° |
| 2026-05-07 10:33 | 33.55274 | 72.82070 | 1769 ft | 24 kts | 281° |
| 2026-05-07 10:33 | 33.55304 | 72.81870 | 1768 ft | 25 kts | 282° |
| 2026-05-07 10:33 | 33.55337 | 72.81664 | 1767 ft | 26 kts | 282° |
| 2026-05-07 10:34 | 33.55364 | 72.81458 | 1767 ft | 25 kts | 282° |
| 2026-05-07 10:34 | 33.55399 | 72.81256 | 1770 ft | 24 kts | 279° |
| 2026-05-07 10:34 | 33.55428 | 72.81061 | 1769 ft | 24 kts | 281° |
| 2026-05-07 10:34 | 33.55460 | 72.80857 | 1771 ft | 25 kts | 280° |
| 2026-05-07 10:35 | 33.55450 | 72.80700 | 1769 ft | 15 kts | 211° |
| 2026-05-07 10:35 | 33.55344 | 72.80672 | 1764 ft | 19 kts | 190° |
| 2026-05-07 10:35 | 33.55203 | 72.80646 | 1757 ft | 21 kts | 191° |
| 2026-05-07 10:35 | 33.55105 | 72.80673 | 1749 ft | 13 kts | 114° |
| 2026-05-07 10:36 | 33.55091 | 72.80754 | 1749 ft | 9 kts | 99° |
| 2026-05-07 10:36 | 33.55061 | 72.80971 | 1754 ft | 56 kts | 100° |
| 2026-05-07 10:36 | 33.54946 | 72.81657 | 1760 ft | 109 kts | 101° |
| 2026-05-07 10:36 | 33.54779 | 72.82734 | 1753 ft | 151 kts | 100° |
| 2026-05-07 10:37 | 33.54573 | 72.84081 | 1931 ft | 170 kts | 101° |
| 2026-05-07 10:37 | 33.54351 | 72.85505 | 2359 ft | 177 kts | 102° |
| 2026-05-07 10:37 | 33.54121 | 72.86968 | 2841 ft | 182 kts | 102° |
| 2026-05-07 10:37 | 33.53883 | 72.88473 | 3298 ft | 184 kts | 102° |
| 2026-05-07 10:38 | 33.53749 | 72.90011 | 3642 ft | 195 kts | 83° |
| 2026-05-07 10:38 | 33.54314 | 72.91518 | 3930 ft | 208 kts | 46° |
| 2026-05-07 10:38 | 33.55607 | 72.92337 | 4244 ft | 218 kts | 9° |
| 2026-05-07 10:38 | 33.57139 | 72.92573 | 4649 ft | 224 kts | 6° |
| 2026-05-07 10:39 | 33.58699 | 72.92797 | 5152 ft | 226 kts | 6° |
| 2026-05-07 10:39 | 33.60293 | 72.93029 | 5441 ft | 244 kts | 6° |
| 2026-05-07 10:39 | 33.62044 | 72.93288 | 5837 ft | 261 kts | 6° |
| 2026-05-07 10:39 | 33.63913 | 72.93568 | 6286 ft | 278 kts | 7° |
| 2026-05-07 10:40 | 33.65871 | 72.93866 | 6896 ft | 286 kts | 7° |
| 2026-05-07 10:40 | 33.67831 | 72.94167 | 7676 ft | 287 kts | 7° |
| 2026-05-07 10:40 | 33.69818 | 72.94474 | 8500 ft | 288 kts | 7° |
| 2026-05-07 10:40 | 33.71816 | 72.94784 | 9313 ft | 289 kts | 7° |
| 2026-05-07 10:41 | 33.73816 | 72.95094 | 10097 ft | 291 kts | 7° |
| 2026-05-07 10:41 | 33.75838 | 72.95409 | 10555 ft | 305 kts | 7° |
| 2026-05-07 10:41 | 33.78000 | 72.95743 | 10895 ft | 321 kts | 7° |
| 2026-05-07 10:41 | 33.80276 | 72.96093 | 11216 ft | 338 kts | 7° |
| 2026-05-07 10:42 | 33.82667 | 72.96462 | 11499 ft | 354 kts | 7° |
| 2026-05-07 10:42 | 33.85168 | 72.96849 | 11775 ft | 369 kts | 7° |
| 2026-05-07 10:42 | 33.87740 | 72.97247 | 12291 ft | 376 kts | 7° |
| 2026-05-07 10:42 | 33.90351 | 72.97650 | 12927 ft | 379 kts | 7° |
| 2026-05-07 10:43 | 33.92973 | 72.98056 | 13593 ft | 381 kts | 7° |
| 2026-05-07 10:43 | 33.95616 | 72.98467 | 14185 ft | 383 kts | 7° |
| 2026-05-07 10:43 | 33.98243 | 72.98877 | 14752 ft | 386 kts | 7° |
| 2026-05-07 10:43 | 34.00918 | 72.99294 | 15328 ft | 388 kts | 7° |
| 2026-05-07 10:44 | 34.03606 | 72.99713 | 15910 ft | 391 kts | 7° |
| 2026-05-07 10:44 | 34.06314 | 73.00137 | 16482 ft | 393 kts | 7° |
| 2026-05-07 10:44 | 34.09035 | 73.00564 | 17079 ft | 396 kts | 7° |
| 2026-05-07 10:44 | 34.11739 | 73.00988 | 17697 ft | 398 kts | 7° |
| 2026-05-07 10:45 | 34.14496 | 73.01417 | 18244 ft | 401 kts | 7° |
| 2026-05-07 10:45 | 34.17282 | 73.01849 | 18709 ft | 404 kts | 7° |
| 2026-05-07 10:45 | 34.20082 | 73.02284 | 19198 ft | 407 kts | 7° |
| 2026-05-07 10:45 | 34.22902 | 73.02722 | 19684 ft | 409 kts | 7° |
| 2026-05-07 10:46 | 34.25736 | 73.03164 | 20160 ft | 411 kts | 7° |
| 2026-05-07 10:46 | 34.28556 | 73.03608 | 20622 ft | 413 kts | 7° |
| 2026-05-07 10:46 | 34.31413 | 73.04056 | 21088 ft | 415 kts | 7° |
| 2026-05-07 10:46 | 34.34282 | 73.04504 | 21508 ft | 417 kts | 7° |
| 2026-05-07 10:47 | 34.37182 | 73.04955 | 21910 ft | 420 kts | 7° |
| 2026-05-07 10:47 | 34.40064 | 73.05403 | 22302 ft | 422 kts | 7° |
| 2026-05-07 10:47 | 34.42979 | 73.05859 | 22684 ft | 424 kts | 7° |
| 2026-05-07 10:47 | 34.45924 | 73.06321 | 23091 ft | 426 kts | 7° |
| 2026-05-07 10:48 | 34.48872 | 73.06786 | 23497 ft | 428 kts | 7° |
| 2026-05-07 10:48 | 34.51832 | 73.07284 | 23823 ft | 430 kts | 11° |
| 2026-05-07 10:48 | 34.54712 | 73.08305 | 24156 ft | 432 kts | 21° |
| 2026-05-07 10:48 | 34.57382 | 73.09994 | 24452 ft | 435 kts | 32° |
| 2026-05-07 10:49 | 34.59754 | 73.12299 | 24758 ft | 440 kts | 43° |
| 2026-05-07 10:49 | 34.61712 | 73.15112 | 25046 ft | 444 kts | 53° |
| 2026-05-07 10:49 | 34.63347 | 73.18310 | 25328 ft | 447 kts | 56° |
| 2026-05-07 10:49 | 34.64966 | 73.21544 | 25617 ft | 449 kts | 56° |
| 2026-05-07 10:50 | 34.66595 | 73.24791 | 25889 ft | 450 kts | 56° |
| 2026-05-07 10:50 | 34.68228 | 73.28046 | 26153 ft | 451 kts | 56° |
| 2026-05-07 10:50 | 34.69862 | 73.31311 | 26413 ft | 452 kts | 56° |
| 2026-05-07 10:50 | 34.71502 | 73.34590 | 26655 ft | 455 kts | 56° |
| 2026-05-07 10:51 | 34.73148 | 73.37882 | 26895 ft | 456 kts | 56° |
| 2026-05-07 10:51 | 34.74794 | 73.41184 | 27062 ft | 457 kts | 56° |
| 2026-05-07 10:51 | 34.76443 | 73.44492 | 27104 ft | 457 kts | 56° |
| 2026-05-07 10:51 | 34.78277 | 73.47566 | 27110 ft | 455 kts | 47° |
| 2026-05-07 10:52 | 34.80500 | 73.50289 | 27117 ft | 452 kts | 39° |
| 2026-05-07 10:52 | 34.82974 | 73.52647 | 27121 ft | 451 kts | 36° |
| 2026-05-07 10:52 | 34.85465 | 73.54971 | 27129 ft | 451 kts | 36° |
| 2026-05-07 10:52 | 34.87955 | 73.57305 | 27140 ft | 452 kts | 36° |
| 2026-05-07 10:53 | 34.90446 | 73.59650 | 27140 ft | 451 kts | 36° |
| 2026-05-07 10:53 | 34.92905 | 73.61966 | 27147 ft | 452 kts | 36° |
| 2026-05-07 10:53 | 34.95389 | 73.64309 | 27151 ft | 452 kts | 36° |
| 2026-05-07 10:53 | 34.97871 | 73.66655 | 27154 ft | 451 kts | 36° |
| 2026-05-07 10:54 | 35.00356 | 73.69006 | 27157 ft | 451 kts | 37° |
| 2026-05-07 10:54 | 35.02845 | 73.71360 | 27154 ft | 451 kts | 37° |
| 2026-05-07 10:54 | 35.05324 | 73.73709 | 27153 ft | 451 kts | 37° |
| 2026-05-07 10:54 | 35.07804 | 73.76059 | 27146 ft | 451 kts | 37° |
| 2026-05-07 10:55 | 35.10249 | 73.78380 | 27133 ft | 451 kts | 37° |
| 2026-05-07 10:55 | 35.12726 | 73.80727 | 27121 ft | 451 kts | 37° |
| 2026-05-07 10:55 | 35.15206 | 73.83073 | 27113 ft | 451 kts | 37° |
| 2026-05-07 10:55 | 35.17693 | 73.85429 | 27106 ft | 450 kts | 37° |
| 2026-05-07 10:56 | 35.20177 | 73.87781 | 27086 ft | 451 kts | 37° |
| 2026-05-07 10:56 | 35.22627 | 73.90108 | 27087 ft | 451 kts | 37° |
| 2026-05-07 10:56 | 35.25113 | 73.92477 | 27077 ft | 451 kts | 37° |
| 2026-05-07 10:56 | 35.27591 | 73.94842 | 27068 ft | 452 kts | 37° |
| 2026-05-07 10:57 | 35.30072 | 73.97209 | 27056 ft | 451 kts | 37° |
| 2026-05-07 10:57 | 35.32554 | 73.99576 | 27048 ft | 452 kts | 37° |
| 2026-05-07 10:57 | 35.35039 | 74.01945 | 27039 ft | 452 kts | 37° |
| 2026-05-07 10:57 | 35.37487 | 74.04286 | 27036 ft | 452 kts | 37° |
| 2026-05-07 10:58 | 35.39892 | 74.06781 | 27037 ft | 453 kts | 44° |
| 2026-05-07 10:58 | 35.41976 | 74.09702 | 27043 ft | 455 kts | 53° |
| 2026-05-07 10:58 | 35.43653 | 74.12996 | 27052 ft | 457 kts | 61° |
| 2026-05-07 10:58 | 35.45104 | 74.16477 | 27054 ft | 457 kts | 62° |
| 2026-05-07 10:59 | 35.46538 | 74.19896 | 27060 ft | 456 kts | 61° |
| 2026-05-07 10:59 | 35.47998 | 74.23362 | 27062 ft | 457 kts | 61° |
| 2026-05-07 10:59 | 35.49463 | 74.26834 | 27068 ft | 457 kts | 61° |
| 2026-05-07 10:59 | 35.50908 | 74.30262 | 27073 ft | 456 kts | 62° |
| 2026-05-07 11:00 | 35.52364 | 74.33723 | 27074 ft | 456 kts | 62° |
| 2026-05-07 11:00 | 35.53824 | 74.37193 | 27080 ft | 456 kts | 62° |
| 2026-05-07 11:00 | 35.55280 | 74.40665 | 27071 ft | 457 kts | 62° |
| 2026-05-07 11:00 | 35.56729 | 74.44143 | 27078 ft | 457 kts | 62° |
| 2026-05-07 11:01 | 35.58156 | 74.47574 | 27082 ft | 456 kts | 62° |
| 2026-05-07 11:01 | 35.59604 | 74.51051 | 27083 ft | 456 kts | 62° |
| 2026-05-07 11:01 | 35.61054 | 74.54535 | 27084 ft | 456 kts | 62° |
| 2026-05-07 11:01 | 35.62502 | 74.58010 | 27091 ft | 457 kts | 62° |
| 2026-05-07 11:02 | 35.63940 | 74.61435 | 27091 ft | 457 kts | 61° |
| 2026-05-07 11:02 | 35.65448 | 74.64866 | 27098 ft | 456 kts | 60° |
| 2026-05-07 11:02 | 35.66988 | 74.68239 | 27106 ft | 443 kts | 59° |
| 2026-05-07 11:02 | 35.68457 | 74.71487 | 27125 ft | 431 kts | 63° |
| 2026-05-07 11:03 | 35.69555 | 74.74912 | 27135 ft | 432 kts | 73° |
| 2026-05-07 11:03 | 35.70138 | 74.78505 | 27142 ft | 425 kts | 83° |
| 2026-05-07 11:03 | 35.70212 | 74.82147 | 27157 ft | 427 kts | 92° |
| 2026-05-07 11:03 | 35.69831 | 74.85743 | 26675 ft | 434 kts | 101° |
| 2026-05-07 11:04 | 35.68995 | 74.89296 | 26334 ft | 426 kts | 105° |
| 2026-05-07 11:04 | 35.68137 | 74.92722 | 26218 ft | 411 kts | 105° |
| 2026-05-07 11:04 | 35.67326 | 74.96025 | 26030 ft | 397 kts | 105° |
| 2026-05-07 11:04 | 35.66541 | 74.99264 | 25647 ft | 392 kts | 104° |
| 2026-05-07 11:05 | 35.65772 | 75.02465 | 25209 ft | 388 kts | 104° |
| 2026-05-07 11:05 | 35.65010 | 75.05633 | 24690 ft | 385 kts | 104° |
| 2026-05-07 11:05 | 35.64252 | 75.08786 | 24078 ft | 384 kts | 105° |
| 2026-05-07 11:05 | 35.63493 | 75.11932 | 23647 ft | 380 kts | 105° |
| 2026-05-07 11:06 | 35.62752 | 75.14995 | 23521 ft | 366 kts | 105° |
| 2026-05-07 11:06 | 35.62034 | 75.17940 | 23382 ft | 354 kts | 105° |
| 2026-05-07 11:06 | 35.61494 | 75.20151 | 23269 ft | 341 kts | 105° |
| 2026-05-07 11:06 | 35.60827 | 75.22894 | 22923 ft | 332 kts | 105° |
| 2026-05-07 11:07 | 35.60169 | 75.25592 | 22455 ft | 326 kts | 105° |
| 2026-05-07 11:07 | 35.59518 | 75.28257 | 22013 ft | 324 kts | 107° |
| 2026-05-07 11:07 | 35.58526 | 75.30729 | 21574 ft | 322 kts | 121° |
| 2026-05-07 11:07 | 35.57229 | 75.32963 | 21117 ft | 318 kts | 133° |
| 2026-05-07 11:08 | 35.55468 | 75.34513 | 20673 ft | 315 kts | 154° |
| 2026-05-07 11:08 | 35.53456 | 75.35555 | 20249 ft | 311 kts | 158° |
| 2026-05-07 11:08 | 35.51454 | 75.36512 | 19815 ft | 304 kts | 156° |
| 2026-05-07 11:08 | 35.49662 | 75.37798 | 19395 ft | 295 kts | 141° |
| 2026-05-07 11:09 | 35.48089 | 75.39323 | 18976 ft | 289 kts | 139° |
| 2026-05-07 11:09 | 35.46523 | 75.40896 | 18552 ft | 286 kts | 139° |
| 2026-05-07 11:09 | 35.44990 | 75.42440 | 18107 ft | 284 kts | 139° |
| 2026-05-07 11:09 | 35.43516 | 75.43923 | 17850 ft | 270 kts | 139° |
| 2026-05-07 11:10 | 35.42074 | 75.45373 | 17427 ft | 266 kts | 139° |
| 2026-05-07 11:10 | 35.40645 | 75.46815 | 16966 ft | 266 kts | 139° |
| 2026-05-07 11:10 | 35.39222 | 75.48252 | 16522 ft | 264 kts | 139° |
| 2026-05-07 11:10 | 35.37787 | 75.49613 | 16090 ft | 258 kts | 143° |
| 2026-05-07 11:11 | 35.36257 | 75.50738 | 15639 ft | 254 kts | 151° |
| 2026-05-07 11:11 | 35.34689 | 75.51703 | 15220 ft | 250 kts | 153° |
| 2026-05-07 11:11 | 35.33143 | 75.52632 | 14801 ft | 246 kts | 153° |
| 2026-05-07 11:11 | 35.31685 | 75.53670 | 14457 ft | 243 kts | 136° |
| 2026-05-07 11:12 | 35.30639 | 75.55262 | 14107 ft | 239 kts | 118° |
| 2026-05-07 11:12 | 35.29882 | 75.57066 | 13735 ft | 238 kts | 113° |
| 2026-05-07 11:12 | 35.29206 | 75.58903 | 13370 ft | 235 kts | 104° |
| 2026-05-07 11:12 | 35.29027 | 75.60853 | 13077 ft | 228 kts | 78° |
| 2026-05-07 11:13 | 35.29671 | 75.62557 | 12744 ft | 217 kts | 44° |
| 2026-05-07 11:13 | 35.30907 | 75.63462 | 12343 ft | 207 kts | 12° |
| 2026-05-07 11:13 | 35.32301 | 75.63371 | 11907 ft | 200 kts | 341° |
| 2026-05-07 11:13 | 35.33439 | 75.62403 | 11510 ft | 203 kts | 311° |
| 2026-05-07 11:14 | 35.34088 | 75.60870 | 11142 ft | 205 kts | 291° |
| 2026-05-07 11:14 | 35.34450 | 75.59183 | 10791 ft | 204 kts | 284° |
| 2026-05-07 11:14 | 35.34737 | 75.57513 | 10450 ft | 202 kts | 287° |
| 2026-05-07 11:14 | 35.35169 | 75.55892 | 10106 ft | 198 kts | 292° |
| 2026-05-07 11:15 | 35.35747 | 75.54377 | 9734 ft | 197 kts | 308° |
| 2026-05-07 11:15 | 35.36704 | 75.53200 | 9353 ft | 194 kts | 323° |
| 2026-05-07 11:15 | 35.37788 | 75.52221 | 8885 ft | 197 kts | 325° |
| 2026-05-07 11:15 | 35.38852 | 75.51305 | 8817 ft | 171 kts | 326° |
| 2026-05-07 11:16 | 35.39855 | 75.50715 | 8868 ft | 159 kts | 341° |
| 2026-05-07 11:16 | 35.40925 | 75.50362 | 8880 ft | 159 kts | 343° |
| 2026-05-07 11:16 | 35.41774 | 75.49586 | 9099 ft | 157 kts | 294° |
| 2026-05-07 11:16 | 35.41659 | 75.48276 | 9021 ft | 167 kts | 225° |
| 2026-05-07 11:17 | 35.40583 | 75.48004 | 8479 ft | 168 kts | 149° |
| 2026-05-07 11:17 | 35.39801 | 75.48987 | 8389 ft | 166 kts | 131° |
| 2026-05-07 11:17 | 35.38930 | 75.49933 | 8392 ft | 169 kts | 148° |
| 2026-05-07 11:17 | 35.37900 | 75.50635 | 8120 ft | 168 kts | 150° |
| 2026-05-07 11:18 | 35.36919 | 75.51447 | 7848 ft | 169 kts | 146° |
| 2026-05-07 11:18 | 35.35953 | 75.52239 | 7619 ft | 170 kts | 145° |
| 2026-05-07 11:18 | 35.34970 | 75.53014 | 7399 ft | 167 kts | 146° |
| 2026-05-07 11:18 | 35.34027 | 75.53771 | 7361 ft | 147 kts | 147° |
| 2026-05-07 11:19 | 35.33339 | 75.54313 | 7363 ft | 89 kts | 147° |
| 2026-05-07 11:19 | 35.32932 | 75.54633 | 7358 ft | 56 kts | 148° |
| 2026-05-07 11:19 | 35.32641 | 75.54867 | 7356 ft | 43 kts | 146° |
| 2026-05-07 11:19 | 35.32492 | 75.54924 | 7359 ft | 18 kts | 168° |
| 2026-05-07 11:20 | 35.32464 | 75.54976 | 7359 ft | 5 kts | 57° |
| 2026-05-07 11:20 | 35.32500 | 75.54978 | 7360 ft | 8 kts | 335° |
| 2026-05-07 11:20 | 35.32570 | 75.54926 | 7358 ft | 14 kts | 323° |
| 2026-05-07 11:20 | 35.32654 | 75.54854 | 7355 ft | 16 kts | 328° |
| 2026-05-07 11:21 | 35.32748 | 75.54782 | 7358 ft | 17 kts | 327° |
| 2026-05-07 11:21 | 35.32849 | 75.54702 | 7357 ft | 18 kts | 326° |
| 2026-05-07 11:21 | 35.32957 | 75.54612 | 7357 ft | 19 kts | 327° |
| 2026-05-07 11:21 | 35.33065 | 75.54530 | 7356 ft | 18 kts | 327° |
| 2026-05-07 11:22 | 35.33173 | 75.54445 | 7357 ft | 18 kts | 326° |
| 2026-05-07 11:22 | 35.33253 | 75.54360 | 7359 ft | 11 kts | 267° |
| 2026-05-07 11:22 | 35.33219 | 75.54279 | 7359 ft | 10 kts | 240° |
| 2026-05-07 11:22 | 35.33185 | 75.54220 | 7359 ft | 7 kts | 234° |
| 2026-05-07 11:23 | 35.33160 | 75.54178 | 7357 ft | 5 kts | 234° |
| 2026-05-07 11:23 | 35.33140 | 75.54139 | 7358 ft | 7 kts | 237° |
| 2026-05-07 11:23 | 35.33109 | 75.54120 | 7358 ft | 3 kts | 163° |
| 2026-05-07 11:23 | 35.33097 | 75.54130 | 7360 ft | 2 kts | 147° |
| 2026-05-07 11:24 | 35.33079 | 75.54140 | 7359 ft | 3 kts | 168° |
| 2026-05-07 11:24 | 35.33055 | 75.54126 | 7357 ft | 4 kts | 225° |
| 2026-05-07 11:24 | 35.33059 | 75.54101 | 7358 ft | 3 kts | 305° |
| 2026-05-07 11:24 | 35.33074 | 75.54090 | 7359 ft | 0 kts | 327° |
| 2026-05-07 11:25 | 35.33075 | 75.54089 | 7359 ft | 0 kts | 327° |
| 2026-05-07 11:27 | 35.33069 | 75.54092 | 7359 ft | 0 kts | 147° |